createdAt,value
2023-02-04T00:02:05.141Z,6.10
2023-02-04T00:07:09.174Z,7.40
2023-02-04T00:12:14.760Z,6.80
2023-02-04T00:17:18.801Z,5.30
2023-02-04T00:22:23.035Z,7.90
2023-02-04T00:27:27.057Z,6.50
2023-02-04T00:32:31.800Z,5.90
2023-02-04T00:37:36.122Z,4.00
2023-02-04T00:42:42.009Z,4.00
2023-02-04T00:47:46.256Z,5.70
2023-02-04T00:52:50.584Z,4.50
2023-02-04T00:57:54.614Z,5.20
2023-02-04T01:02:59.049Z,3.40
2023-02-04T01:08:03.302Z,5.60
2023-02-04T01:13:08.775Z,3.50
2023-02-04T01:18:13.510Z,5.40
2023-02-04T01:23:18.260Z,3.50
2023-02-04T01:28:22.615Z,3.30
2023-02-04T01:33:26.859Z,3.40
2023-02-04T01:38:30.979Z,3.10
2023-02-04T01:43:35.637Z,3.40
2023-02-04T01:48:40.184Z,3.50
2023-02-04T01:53:44.407Z,3.20
2023-02-04T01:58:49.252Z,2.90
2023-02-04T02:03:56.113Z,3.40
2023-02-04T02:09:00.411Z,3.80
2023-02-04T02:14:05.968Z,3.60
2023-02-04T02:19:15.621Z,2.70
2023-02-04T02:24:31.319Z,4.10
2023-02-04T02:29:36.999Z,2.30
2023-02-04T02:34:42.349Z,3.00
2023-02-04T02:39:47.007Z,2.30
2023-02-04T02:44:52.185Z,5.20
2023-02-04T02:49:56.137Z,3.70
2023-02-04T02:55:00.109Z,3.10
2023-02-04T03:00:16.854Z,3.00
2023-02-04T03:05:21.364Z,2.70
2023-02-04T03:10:25.504Z,2.10
2023-02-04T03:15:30.438Z,3.10
2023-02-04T03:20:35.212Z,2.00
2023-02-04T03:25:40.179Z,3.90
2023-02-04T03:30:44.400Z,2.40
2023-02-04T03:35:48.430Z,2.00
2023-02-04T03:40:52.577Z,1.70
2023-02-04T03:45:56.618Z,2.40
2023-02-04T03:51:00.670Z,1.90
2023-02-04T03:56:04.918Z,1.70
2023-02-04T04:01:08.939Z,1.90
2023-02-04T04:06:13.040Z,2.40
2023-02-04T04:11:16.969Z,1.90
2023-02-04T04:16:21.436Z,2.80
2023-02-04T04:21:25.743Z,1.70
2023-02-04T04:26:29.897Z,3.70
2023-02-04T04:31:34.207Z,2.20
2023-02-04T04:36:39.484Z,1.50
2023-02-04T04:41:43.519Z,2.60
2023-02-04T04:46:47.807Z,2.10
2023-02-04T04:51:51.886Z,1.90
2023-02-04T04:56:55.920Z,1.60
2023-02-04T05:02:00.170Z,1.30
2023-02-04T05:07:04.804Z,1.60
2023-02-04T05:12:08.957Z,1.90
2023-02-04T05:17:12.980Z,3.60
2023-02-04T05:22:17.322Z,1.30
2023-02-04T05:27:21.371Z,1.70
2023-02-04T05:32:25.623Z,1.70
2023-02-04T05:37:30.127Z,1.20
2023-02-04T05:42:34.061Z,2.80
2023-02-04T05:47:38.114Z,1.50
2023-02-04T05:52:42.324Z,1.50
2023-02-04T05:57:46.254Z,1.60
2023-02-04T06:02:50.288Z,1.80
2023-02-04T06:07:54.612Z,1.10
2023-02-04T06:12:58.675Z,1.40
2023-02-04T06:18:02.797Z,1.60
2023-02-04T06:23:06.822Z,1.80
2023-02-04T06:28:10.900Z,1.90
2023-02-04T06:33:14.907Z,3.10
2023-02-04T06:38:19.946Z,1.90
2023-02-04T06:43:25.881Z,1.50
2023-02-04T06:48:31.195Z,1.30
2023-02-04T06:53:35.362Z,1.20
2023-02-04T06:58:39.368Z,4.30
2023-02-04T07:03:45.096Z,2.80
2023-02-04T07:08:49.995Z,1.50
2023-02-04T07:13:54.020Z,3.00
2023-02-04T07:18:58.347Z,1.80
2023-02-04T07:24:02.496Z,0.90
2023-02-04T07:29:08.520Z,2.20
2023-02-04T07:34:18.968Z,1.20
2023-02-04T07:39:22.978Z,1.40
2023-02-04T07:44:27.300Z,2.30
2023-02-04T07:49:31.335Z,3.00
2023-02-04T07:54:35.584Z,1.10
2023-02-04T07:59:39.611Z,4.40
2023-02-04T08:04:44.149Z,2.50
2023-02-04T08:09:48.180Z,1.30
2023-02-04T08:14:52.108Z,2.50
2023-02-04T08:19:56.952Z,1.00
2023-02-04T08:25:01.418Z,3.40
2023-02-04T08:30:06.587Z,3.60
2023-02-04T08:35:10.710Z,3.40
2023-02-04T08:40:15.496Z,1.40
2023-02-04T08:45:19.787Z,1.30
2023-02-04T08:50:23.932Z,1.30
2023-02-04T08:55:28.778Z,1.00
2023-02-04T09:00:34.029Z,1.40
2023-02-04T09:05:39.011Z,2.10
2023-02-04T09:10:43.677Z,4.80
2023-02-04T09:15:47.571Z,1.20
2023-02-04T09:20:53.981Z,3.80
2023-02-04T09:25:59.742Z,2.00
2023-02-04T09:31:06.801Z,3.60
2023-02-04T09:36:10.787Z,1.40
2023-02-04T09:41:15.336Z,3.80
2023-02-04T09:46:23.054Z,6.50
2023-02-04T09:51:29.886Z,4.00
2023-02-04T09:56:34.276Z,5.30
2023-02-04T10:01:41.789Z,11.60
2023-02-04T10:06:46.751Z,2.30
2023-02-04T10:11:51.989Z,4.10
2023-02-04T10:16:59.483Z,4.60
2023-02-04T10:22:04.589Z,4.20
2023-02-04T10:27:13.199Z,4.70
2023-02-04T10:32:29.531Z,4.20
2023-02-04T10:37:33.654Z,4.60
2023-02-04T10:42:37.878Z,3.40
2023-02-04T10:47:52.088Z,3.50
2023-02-04T10:53:17.776Z,4.10
2023-02-04T10:58:30.446Z,2.10
2023-02-04T11:03:34.652Z,1.80
2023-02-04T11:08:39.985Z,4.40
2023-02-04T11:13:58.475Z,5.90
2023-02-04T11:19:12.121Z,7.00
2023-02-04T11:24:16.567Z,1.60
2023-02-04T11:29:36.228Z,6.30
2023-02-04T11:34:51.439Z,5.20
2023-02-04T11:40:00.568Z,4.00
2023-02-04T11:45:18.520Z,4.80
2023-02-04T11:50:44.800Z,4.00
2023-02-04T11:55:55.054Z,7.20
2023-02-04T12:00:59.693Z,5.50
2023-02-04T12:06:04.451Z,12.70
2023-02-04T12:11:26.285Z,17.10
2023-02-04T12:21:45.571Z,17.20
2023-02-04T12:26:49.845Z,8.70
2023-02-04T12:31:54.198Z,8.10
2023-02-04T12:36:58.630Z,14.10
2023-02-04T12:42:04.901Z,9.70
2023-02-04T12:47:09.243Z,11.70
2023-02-04T12:52:13.393Z,7.50
2023-02-04T12:57:20.168Z,6.30
2023-02-04T13:02:24.307Z,5.50
2023-02-04T13:07:28.435Z,5.70
2023-02-04T13:12:32.456Z,5.80
2023-02-04T13:17:37.029Z,8.10
2023-02-04T13:22:41.361Z,5.00
2023-02-04T13:27:45.524Z,5.00
2023-02-04T13:32:49.827Z,9.50
2023-02-04T13:37:56.568Z,6.50
2023-02-04T13:43:00.781Z,5.00
2023-02-04T13:48:05.412Z,6.30
2023-02-04T13:53:09.565Z,4.00
2023-02-04T13:58:14.473Z,2.20
2023-02-04T14:03:18.745Z,3.20
2023-02-04T14:08:23.880Z,6.10
2023-02-04T14:13:28.338Z,2.20
2023-02-04T14:18:34.035Z,4.50
2023-02-04T14:23:39.584Z,2.60
2023-02-04T14:28:44.107Z,2.30
2023-02-04T14:33:50.126Z,3.00
2023-02-04T14:38:54.936Z,2.80
2023-02-04T14:43:59.788Z,4.10
2023-02-04T14:49:04.234Z,2.10
2023-02-04T14:54:08.591Z,2.70
2023-02-04T14:59:14.091Z,1.90
2023-02-04T15:04:18.909Z,3.10
2023-02-04T15:09:25.157Z,2.60
2023-02-04T15:14:29.216Z,4.40
2023-02-04T15:19:33.751Z,1.80
2023-02-04T15:24:39.580Z,3.50
2023-02-04T15:29:43.975Z,1.60
2023-02-04T15:34:49.437Z,2.90
2023-02-04T15:39:55.336Z,1.50
2023-02-04T15:45:02.158Z,2.30
2023-02-04T15:50:09.344Z,2.00
2023-02-04T15:55:15.169Z,1.90
2023-02-04T16:00:20.568Z,1.70
2023-02-04T16:05:25.188Z,3.50
2023-02-04T16:10:29.626Z,2.30
2023-02-04T16:15:34.321Z,2.30
2023-02-04T16:20:39.672Z,5.00
2023-02-04T16:25:44.083Z,4.00
2023-02-04T16:30:49.045Z,3.00
2023-02-04T16:36:01.404Z,7.90
2023-02-04T16:41:07.812Z,4.90
2023-02-04T16:46:16.450Z,2.30
2023-02-04T16:51:21.410Z,9.20
2023-02-04T16:56:27.481Z,3.10
2023-02-04T17:01:31.955Z,7.40
2023-02-04T17:06:36.332Z,10.40
2023-02-04T17:11:40.842Z,6.80
2023-02-04T17:16:46.103Z,7.90
2023-02-04T17:21:50.849Z,5.20
2023-02-04T17:26:55.601Z,6.00
2023-02-04T17:32:00.847Z,10.60
2023-02-04T17:37:04.996Z,8.00
2023-02-04T17:42:09.892Z,4.50
2023-02-04T17:47:15.016Z,3.90
2023-02-04T17:52:20.196Z,6.20
2023-02-04T17:57:24.929Z,4.40
2023-02-04T18:02:33.887Z,4.70
2023-02-04T18:07:41.593Z,5.90
2023-02-04T18:12:46.536Z,5.70
2023-02-04T18:17:51.565Z,4.40
2023-02-04T18:23:03.692Z,4.00
2023-02-04T18:28:22.471Z,19.60
2023-02-04T18:33:27.747Z,13.80
2023-02-04T18:38:39.871Z,8.40
2023-02-04T18:48:57.902Z,10.90
2023-02-04T18:54:25.525Z,12.00
2023-02-04T18:59:30.862Z,12.70
2023-02-04T19:04:37.560Z,8.90
2023-02-04T19:09:42.781Z,7.40
2023-02-04T19:14:47.580Z,10.80
2023-02-04T19:20:09.865Z,7.20
2023-02-04T19:25:25.003Z,11.10
2023-02-04T19:30:29.629Z,3.50
2023-02-04T19:35:46.687Z,6.30
2023-02-04T19:40:57.148Z,5.30
2023-02-04T19:46:17.431Z,3.20
2023-02-04T19:51:29.678Z,6.00
2023-02-04T19:56:37.078Z,7.90
2023-02-04T20:01:43.526Z,9.80
2023-02-04T20:06:51.312Z,8.10
2023-02-04T20:12:07.013Z,10.30
2023-02-04T20:17:21.627Z,7.20
2023-02-04T20:22:44.029Z,10.60
2023-02-04T20:33:38.052Z,15.20
2023-02-04T20:38:42.376Z,6.90
2023-02-04T20:43:49.869Z,11.90
2023-02-04T20:48:55.680Z,11.10
2023-02-04T20:54:07.744Z,16.00
2023-02-04T20:59:14.901Z,7.50
2023-02-04T21:04:39.181Z,12.60
2023-02-04T21:09:44.226Z,11.00
2023-02-04T21:14:49.431Z,10.60
2023-02-04T21:19:54.644Z,9.50
2023-02-04T21:24:59.805Z,4.10
2023-02-04T21:30:05.663Z,6.60
2023-02-04T21:35:11.965Z,7.40
2023-02-04T21:40:22.408Z,4.50
2023-02-04T21:45:28.344Z,5.40
2023-02-04T21:50:36.036Z,3.10
2023-02-04T21:55:44.030Z,6.20
2023-02-04T22:00:50.387Z,7.20
2023-02-04T22:05:58.105Z,6.00
2023-02-04T22:11:07.745Z,3.70
2023-02-04T22:16:16.990Z,3.20
2023-02-04T22:21:24.068Z,4.00
2023-02-04T22:26:28.733Z,7.10
2023-02-04T22:31:38.426Z,3.10
2023-02-04T22:36:45.154Z,3.90
2023-02-04T22:41:52.175Z,3.90
2023-02-04T22:46:57.172Z,3.00
2023-02-04T22:52:02.297Z,2.10
2023-02-04T22:57:07.872Z,2.50
2023-02-04T23:02:13.075Z,3.80
2023-02-04T23:07:17.866Z,4.20
2023-02-04T23:12:23.012Z,2.90
2023-02-04T23:17:28.384Z,3.90
2023-02-04T23:22:33.335Z,2.30
2023-02-04T23:27:38.265Z,4.70
2023-02-04T23:32:42.926Z,2.90
2023-02-04T23:37:47.057Z,3.30
2023-02-04T23:42:52.118Z,4.70
2023-02-04T23:47:56.253Z,2.30
2023-02-04T23:53:00.516Z,2.50
2023-02-04T23:58:06.381Z,3.50
